Wetterdaten: Woche 26.02.18 - 04.03.18 (KW9)
Datum Zeit Temp. A. Feuchte A. Luftdruck Regen Wind Richtung Taupunkt Windchill Windben
26.02.2018 00:00 -11,4 C 69 % 1025,6 hPa 0,0 l/m 3,8 km/h N -15,9 C -11,4 C 13,3 km/h
26.02.2018 01:00 -11,4 C 70 % 1025,2 hPa 0,0 l/m 4,7 km/h N -15,8 C -11,4 C 12,1 km/h
26.02.2018 02:00 -11,7 C 70 % 1024,8 hPa 0,0 l/m 4,3 km/h N -15,9 C -11,7 C 11,3 km/h
26.02.2018 03:00 -11,8 C 71 % 1024,3 hPa 0,0 l/m 4,8 km/h N -15,9 C -11,8 C 13,7 km/h
26.02.2018 04:00 -11,9 C 72 % 1024,0 hPa 0,0 l/m 4,7 km/h N -15,9 C -11,9 C 12,9 km/h
26.02.2018 05:00 -12,1 C 73 % 1023,9 hPa 0,0 l/m 3,8 km/h N -16,0 C -12,1 C 9,7 km/h
26.02.2018 06:00 -12,2 C 73 % 1023,6 hPa 0,0 l/m 5,7 km/h N -16,0 C -12,6 C 16,5 km/h
26.02.2018 07:00 -12,2 C 74 % 1023,9 hPa 0,0 l/m 6,8 km/h N -15,9 C -12,8 C 16,1 km/h
26.02.2018 08:00 -11,6 C 73 % 1023,8 hPa 0,0 l/m 6,3 km/h N -15,5 C -12,0 C 16,9 km/h
26.02.2018 09:00 -10,8 C 71 % 1023,6 hPa 0,0 l/m 7,6 km/h N -15,0 C -12,3 C 18,9 km/h
26.02.2018 10:00 -10,4 C 70 % 1023,2 hPa 0,0 l/m 6,8 km/h N -14,7 C -10,9 C 17,3 km/h
26.02.2018 11:00 -9,4 C 69 % 1022,5 hPa 0,0 l/m 8,5 km/h N -14,0 C -12,0 C 19,3 km/h
26.02.2018 12:00 -8,6 C 68 % 1021,5 hPa 0,0 l/m 8,9 km/h N -13,4 C -11,7 C 22,1 km/h
26.02.2018 13:00 -8,1 C 69 % 1020,8 hPa 0,0 l/m 8,8 km/h N -12,8 C -11,1 C 24,1 km/h
26.02.2018 14:00 -7,7 C 70 % 1020,3 hPa 0,0 l/m 9,2 km/h N -12,3 C -11,1 C 22,1 km/h
26.02.2018 15:00 -7,5 C 72 % 1019,8 hPa 0,0 l/m 8,9 km/h N -11,7 C -10,5 C 20,5 km/h
26.02.2018 16:00 -7,0 C 65 % 1019,4 hPa 0,0 l/m 8,0 km/h N -12,5 C -8,9 C 20,5 km/h
26.02.2018 17:00 -7,1 C 63 % 1019,5 hPa 0,0 l/m 7,5 km/h N -12,9 C -8,5 C 19,3 km/h
26.02.2018 18:00 -7,7 C 64 % 1019,8 hPa 0,0 l/m 7,6 km/h N -13,2 C -9,1 C 20,9 km/h
26.02.2018 19:00 -8,1 C 66 % 1019,7 hPa 0,0 l/m 7,5 km/h N -13,4 C -9,5 C 21,3 km/h
26.02.2018 20:00 -8,6 C 66 % 1019,5 hPa 0,0 l/m 7,6 km/h N -13,8 C -10,2 C 20,1 km/h
26.02.2018 21:00 -9,0 C 67 % 1019,1 hPa 0,0 l/m 7,9 km/h N -14,0 C -11,0 C 21,7 km/h
26.02.2018 22:00 -9,3 C 67 % 1018,8 hPa 0,0 l/m 6,1 km/h N -14,2 C -9,5 C 17,3 km/h
26.02.2018 23:00 -9,4 C 67 % 1018,6 hPa 0,0 l/m 6,5 km/h N -14,4 C -9,6 C 22,5 km/h
27.02.2018 00:00 -9,7 C 67 % 1018,3 hPa 0,0 l/m 7,2 km/h N -14,6 C -10,8 C 20,1 km/h
27.02.2018 01:00 -9,9 C 68 % 1017,6 hPa 0,0 l/m 6,5 km/h N -14,7 C -10,5 C 18,1 km/h
27.02.2018 02:00 -10,1 C 69 % 1017,3 hPa 0,0 l/m 7,3 km/h N -14,7 C -11,3 C 20,9 km/h
27.02.2018 03:00 -10,1 C 69 % 1016,8 hPa 0,0 l/m 7,4 km/h N -14,7 C -11,5 C 20,9 km/h
27.02.2018 04:00 -10,2 C 69 % 1016,7 hPa 0,0 l/m 8,6 km/h N -14,8 C -13,1 C 22,5 km/h
27.02.2018 05:00 -10,4 C 70 % 1016,6 hPa 0,0 l/m 7,4 km/h N -14,8 C -11,7 C 20,1 km/h
27.02.2018 06:00 -10,6 C 71 % 1016,5 hPa 0,0 l/m 7,9 km/h N -14,8 C -12,6 C 21,3 km/h
27.02.2018 07:00 -10,7 C 71 % 1016,5 hPa 0,0 l/m 8,5 km/h N -14,9 C -13,4 C 23,3 km/h
27.02.2018 08:00 -10,7 C 72 % 1016,7 hPa 0,0 l/m 9,1 km/h N -14,8 C -14,2 C 24,1 km/h
27.02.2018 09:00 -10,6 C 74 % 1016,8 hPa 0,0 l/m 8,1 km/h N -14,4 C -13,0 C 20,9 km/h
27.02.2018 10:00 -10,2 C 69 % 1016,6 hPa 0,0 l/m 8,6 km/h N -14,7 C -13,1 C 22,9 km/h
27.02.2018 11:00 -9,7 C 63 % 1016,3 hPa 0,0 l/m 10,4 km/h N -15,5 C -14,6 C 23,3 km/h
27.02.2018 12:00 -9,2 C 61 % 1016,2 hPa 0,0 l/m 10,1 km/h N -15,3 C -13,6 C 25,8 km/h
27.02.2018 13:00 -9,2 C 63 % 1016,2 hPa 0,0 l/m 8,8 km/h N -15,0 C -12,2 C 24,1 km/h
27.02.2018 14:00 -8,8 C 62 % 1015,9 hPa 0,0 l/m 9,4 km/h N -14,7 C -12,4 C 23,7 km/h
27.02.2018 15:00 -8,4 C 62 % 1015,9 hPa 0,0 l/m 9,5 km/h N -14,4 C -12,2 C 25,7 km/h
27.02.2018 16:00 -8,7 C 67 % 1016,3 hPa 0,0 l/m 7,3 km/h N -13,7 C -9,9 C 20,5 km/h
27.02.2018 17:00 -9,1 C 74 % 1016,7 hPa 0,0 l/m 5,6 km/h N -12,8 C -9,1 C 15,7 km/h
27.02.2018 18:00 -9,3 C 71 % 1017,3 hPa 0,0 l/m 6,4 km/h N -13,6 C -9,7 C 19,3 km/h
27.02.2018 19:00 -9,8 C 71 % 1017,6 hPa 0,0 l/m 6,4 km/h N -14,0 C -10,0 C 17,7 km/h
27.02.2018 20:00 -10,0 C 73 % 1017,9 hPa 0,0 l/m 6,2 km/h N -14,0 C -10,0 C 17,7 km/h
27.02.2018 21:00 -10,3 C 74 % 1018,1 hPa 0,0 l/m 4,6 km/h N -14,1 C -10,3 C 14,1 km/h
27.02.2018 22:00 -10,3 C 75 % 1018,3 hPa 0,0 l/m 4,2 km/h N -13,8 C -10,3 C 13,3 km/h
27.02.2018 23:00 -10,6 C 75 % 1018,7 hPa 0,0 l/m 4,7 km/h N -14,1 C -10,6 C 15,7 km/h
28.02.2018 00:00 -10,8 C 71 % 1018,9 hPa 0,0 l/m 4,4 km/h N -15,0 C -10,8 C 13,3 km/h
28.02.2018 01:00 -11,1 C 70 % 1018,9 hPa 0,0 l/m 3,4 km/h N -15,5 C -11,1 C 12,5 km/h
28.02.2018 02:00 -11,2 C 70 % 1019,0 hPa 0,0 l/m 2,3 km/h N -15,5 C -11,2 C 8,0 km/h
28.02.2018 03:00 -11,4 C 73 % 1019,1 hPa 0,0 l/m 2,7 km/h N -15,3 C -11,4 C 9,7 km/h
28.02.2018 04:00 -11,7 C 73 % 1019,5 hPa 0,0 l/m 2,4 km/h N -15,6 C -11,7 C 8,8 km/h
28.02.2018 05:00 -12,1 C 75 % 1019,9 hPa 0,0 l/m 1,7 km/h N -15,7 C -12,1 C 6,4 km/h
28.02.2018 06:00 -12,3 C 77 % 1020,4 hPa 0,0 l/m 1,4 km/h N -15,6 C -12,3 C 6,8 km/h
28.02.2018 07:00 -12,3 C 77 % 1021,0 hPa 0,0 l/m 2,8 km/h N -15,4 C -12,3 C 9,2 km/h
28.02.2018 08:00 -11,5 C 74 % 1021,6 hPa 0,0 l/m 5,4 km/h N -15,1 C -11,7 C 15,3 km/h
28.02.2018 09:00 -10,6 C 68 % 1021,9 hPa 0,0 l/m 7,5 km/h N -15,3 C -12,0 C 18,5 km/h
28.02.2018 10:00 -10,2 C 66 % 1022,3 hPa 0,0 l/m 6,8 km/h N -15,4 C -10,8 C 18,5 km/h
28.02.2018 11:00 -9,1 C 61 % 1022,6 hPa 0,0 l/m 6,3 km/h N -15,3 C -9,2 C 18,9 km/h
28.02.2018 12:00 -8,3 C 59 % 1022,7 hPa 0,0 l/m 7,2 km/h N -14,9 C -9,4 C 19,3 km/h
28.02.2018 13:00 -8,0 C 58 % 1022,8 hPa 0,0 l/m 7,8 km/h N -14,8 C -9,9 C 18,9 km/h
28.02.2018 14:00 -7,7 C 58 % 1022,8 hPa 0,0 l/m 6,6 km/h N -14,6 C -8,1 C 18,9 km/h
28.02.2018 15:00 -7,6 C 58 % 1022,7 hPa 0,0 l/m 5,3 km/h N -14,5 C -7,6 C 16,5 km/h
28.02.2018 16:00 -7,7 C 59 % 1023,0 hPa 0,0 l/m 3,5 km/h N -14,3 C -7,7 C 10,9 km/h
28.02.2018 17:00 -8,1 C 60 % 1023,3 hPa 0,0 l/m 1,0 km/h N -14,5 C -8,1 C 6,0 km/h
28.02.2018 18:00 -9,1 C 63 % 1023,6 hPa 0,0 l/m 0,1 km/h N -14,9 C -9,1 C 2,4 km/h
28.02.2018 19:00 -10,2 C 66 % 1023,9 hPa 0,0 l/m 0,0 km/h N -15,3 C -10,2 C 0,8 km/h
28.02.2018 20:00 -10,4 C 69 % 1024,1 hPa 0,0 l/m 0,1 km/h N -15,1 C -10,4 C 0,8 km/h
28.02.2018 21:00 -11,4 C 70 % 1024,3 hPa 0,0 l/m 0,0 km/h N -15,8 C -11,4 C 0,0 km/h
28.02.2018 22:00 -12,1 C 72 % 1024,0 hPa 0,0 l/m 0,1 km/h N -16,1 C -12,1 C 0,8 km/h
28.02.2018 23:00 -12,5 C 73 % 1023,7 hPa 0,0 l/m 0,0 km/h N -16,3 C -12,5 C 1,2 km/h
01.03.2018 00:00 -13,4 C 74 % 1023,1 hPa 0,0 l/m 0,0 km/h N -17,0 C -13,4 C 0,0 km/h
01.03.2018 01:00 -14,1 C 75 % 1022,8 hPa 0,0 l/m 0,0 km/h N -17,5 C -14,1 C 0,0 km/h
01.03.2018 02:00 -15,2 C 76 % 1022,0 hPa 0,0 l/m 0,0 km/h N -18,6 C -15,2 C 0,0 km/h
01.03.2018 03:00 -15,9 C 77 % 1021,1 hPa 0,0 l/m 0,0 km/h N -18,9 C -15,9 C 0,0 km/h
01.03.2018 04:00 -15,8 C 80 % 1020,0 hPa 0,0 l/m 0,0 km/h N -18,5 C -15,8 C 0,8 km/h
01.03.2018 05:00 -15,1 C 81 % 1019,3 hPa 0,0 l/m 0,0 km/h N -17,5 C -15,1 C 0,8 km/h
01.03.2018 06:00 -13,1 C 82 % 1018,8 hPa 0,0 l/m 0,1 km/h N -15,5 C -13,1 C 3,2 km/h
01.03.2018 07:00 -12,3 C 82 % 1018,4 hPa 0,0 l/m 0,3 km/h N -14,7 C -12,3 C 6,8 km/h
01.03.2018 08:00 -11,2 C 80 % 1017,9 hPa 0,0 l/m 0,6 km/h N -14,0 C -11,2 C 7,2 km/h
01.03.2018 09:00 -8,6 C 73 % 1017,2 hPa 0,0 l/m 1,7 km/h N -12,5 C -8,6 C 11,3 km/h
01.03.2018 10:00 -6,2 C 65 % 1016,4 hPa 0,0 l/m 2,3 km/h N -11,8 C -6,2 C 10,1 km/h
01.03.2018 11:00 -5,9 C 64 % 1015,5 hPa 0,0 l/m 3,1 km/h N -11,5 C -5,9 C 13,7 km/h
01.03.2018 12:00 -5,3 C 64 % 1014,8 hPa 0,0 l/m 3,6 km/h N -11,0 C -5,3 C 12,9 km/h
01.03.2018 13:00 -5,6 C 65 % 1014,2 hPa 0,0 l/m 3,0 km/h N -11,1 C -5,6 C 13,7 km/h
01.03.2018 14:00 -5,7 C 67 % 1013,7 hPa 0,0 l/m 1,8 km/h N -10,8 C -5,7 C 11,7 km/h
01.03.2018 15:00 -5,8 C 69 % 1013,2 hPa 0,0 l/m 0,5 km/h N -10,5 C -5,8 C 7,6 km/h
01.03.2018 16:00 -5,9 C 70 % 1012,8 hPa 0,0 l/m 0,7 km/h N -10,5 C -5,9 C 8,4 km/h
01.03.2018 17:00 -6,3 C 74 % 1012,7 hPa 0,0 l/m 0,5 km/h N -10,3 C -6,3 C 8,0 km/h
01.03.2018 18:00 -6,7 C 77 % 1012,5 hPa 0,0 l/m 0,4 km/h N -10,1 C -6,7 C 9,7 km/h
01.03.2018 19:00 -6,8 C 79 % 1012,4 hPa 0,0 l/m 0,4 km/h N -9,9 C -6,8 C 10,1 km/h
01.03.2018 20:00 -7,2 C 81 % 1012,0 hPa 0,0 l/m 0,3 km/h N -10,0 C -7,2 C 7,2 km/h
01.03.2018 21:00 -7,4 C 82 % 1011,4 hPa 0,0 l/m 0,5 km/h N -10,0 C -7,4 C 6,4 km/h
01.03.2018 22:00 -7,4 C 83 % 1010,6 hPa 0,0 l/m 0,3 km/h N -9,8 C -7,4 C 6,0 km/h
01.03.2018 23:00 -7,4 C 83 % 1009,8 hPa 0,0 l/m 0,2 km/h N -9,8 C -7,4 C 6,0 km/h
02.03.2018 00:00 -7,3 C 83 % 1008,9 hPa 0,0 l/m 0,8 km/h N -9,7 C -7,3 C 10,4 km/h
02.03.2018 01:00 -7,3 C 83 % 1008,0 hPa 0,0 l/m 0,4 km/h N -9,7 C -7,3 C 7,2 km/h
02.03.2018 02:00 -7,3 C 83 % 1007,0 hPa 0,0 l/m 0,4 km/h N -9,6 C -7,3 C 7,2 km/h
02.03.2018 03:00 -7,3 C 83 % 1006,1 hPa 0,0 l/m 0,4 km/h N -9,6 C -7,3 C 7,2 km/h
02.03.2018 04:00 -7,3 C 83 % 1005,3 hPa 0,0 l/m 0,7 km/h N -9,7 C -7,3 C 9,2 km/h
02.03.2018 05:00 -7,3 C 83 % 1004,7 hPa 0,0 l/m 0,6 km/h N -9,7 C -7,3 C 13,3 km/h
02.03.2018 06:00 -7,2 C 83 % 1004,2 hPa 0,0 l/m 0,3 km/h N -9,6 C -7,2 C 5,6 km/h
02.03.2018 07:00 -7,1 C 83 % 1004,2 hPa 0,0 l/m 0,3 km/h N -9,5 C -7,1 C 7,2 km/h
02.03.2018 08:00 -6,8 C 83 % 1003,7 hPa 0,0 l/m 0,5 km/h N -9,2 C -6,8 C 8,8 km/h
02.03.2018 09:00 -6,4 C 84 % 1003,1 hPa 0,0 l/m 0,7 km/h N -8,7 C -6,4 C 7,2 km/h
02.03.2018 10:00 -5,9 C 84 % 1002,3 hPa 0,0 l/m 1,1 km/h N -8,2 C -5,9 C 7,2 km/h
02.03.2018 11:00 -5,4 C 84 % 1001,6 hPa 0,0 l/m 0,3 km/h N -7,7 C -5,4 C 4,8 km/h
02.03.2018 12:00 -5,1 C 84 % 1000,7 hPa 0,0 l/m 0,4 km/h N -7,5 C -5,1 C 5,6 km/h
02.03.2018 13:00 -5,0 C 84 % 999,8 hPa 0,0 l/m 0,4 km/h N -7,3 C -5,0 C 6,4 km/h
02.03.2018 14:00 -4,9 C 83 % 999,3 hPa 0,0 l/m 0,0 km/h N -7,3 C -4,9 C 2,0 km/h
02.03.2018 15:00 -4,8 C 83 % 999,3 hPa 0,0 l/m 0,0 km/h N -7,3 C -4,8 C 2,4 km/h
02.03.2018 16:00 -5,0 C 83 % 999,2 hPa 0,0 l/m 0,0 km/h N -7,4 C -5,0 C 1,6 km/h
02.03.2018 17:00 -5,1 C 84 % 999,5 hPa 0,0 l/m 0,0 km/h N -7,4 C -5,1 C 2,0 km/h
02.03.2018 18:00 -5,3 C 84 % 1000,0 hPa 0,0 l/m 0,0 km/h N -7,5 C -5,3 C 1,6 km/h
02.03.2018 19:00 -5,3 C 84 % 1001,3 hPa 0,0 l/m 0,1 km/h N -7,5 C -5,3 C 4,0 km/h
02.03.2018 20:00 -5,1 C 84 % 1002,2 hPa 0,0 l/m 2,3 km/h N -7,3 C -5,1 C 8,0 km/h
02.03.2018 21:00 -5,0 C 84 % 1002,0 hPa 0,0 l/m 2,3 km/h N -7,3 C -5,0 C 7,2 km/h
02.03.2018 22:00 -4,9 C 84 % 1001,8 hPa 0,0 l/m 3,4 km/h N -7,1 C -4,9 C 9,3 km/h
02.03.2018 23:00 -5,0 C 84 % 1001,8 hPa 0,0 l/m 6,3 km/h N -7,3 C -5,6 C 16,1 km/h
03.03.2018 00:00 -5,1 C 83 % 1002,0 hPa 0,0 l/m 5,5 km/h N -7,5 C -5,1 C 16,1 km/h
03.03.2018 01:00 -5,2 C 83 % 1002,4 hPa 0,0 l/m 5,2 km/h N -7,6 C -5,2 C 15,7 km/h
03.03.2018 02:00 -5,1 C 84 % 1002,6 hPa 0,0 l/m 3,6 km/h N -7,3 C -5,1 C 11,7 km/h
03.03.2018 03:00 -5,0 C 84 % 1002,8 hPa 0,0 l/m 3,8 km/h N -7,2 C -5,0 C 9,7 km/h
03.03.2018 04:00 -4,9 C 84 % 1003,0 hPa 0,0 l/m 3,9 km/h N -7,2 C -4,9 C 8,9 km/h
03.03.2018 05:00 -4,8 C 83 % 1003,3 hPa 0,0 l/m 3,7 km/h N -7,2 C -4,8 C 8,9 km/h
03.03.2018 06:00 -4,8 C 82 % 1003,1 hPa 0,0 l/m 1,8 km/h N -7,5 C -4,8 C 6,8 km/h
03.03.2018 07:00 -4,7 C 80 % 1003,2 hPa 0,0 l/m 0,8 km/h N -7,6 C -4,7 C 4,8 km/h
03.03.2018 08:00 -4,5 C 75 % 1003,2 hPa 0,0 l/m 1,3 km/h N -8,2 C -4,5 C 5,6 km/h
03.03.2018 09:00 -3,8 C 70 % 1003,1 hPa 0,0 l/m 0,9 km/h N -8,5 C -3,8 C 4,8 km/h
03.03.2018 10:00 -2,6 C 63 % 1002,9 hPa 0,0 l/m 0,2 km/h N -8,7 C -2,6 C 2,8 km/h
03.03.2018 11:00 -1,1 C 59 % 1002,7 hPa 0,0 l/m 0,2 km/h N -8,1 C -1,1 C 2,8 km/h
03.03.2018 12:00 -0,2 C 58 % 1002,1 hPa 0,0 l/m 0,0 km/h N -7,5 C -0,2 C 1,6 km/h
03.03.2018 13:00 0,4 C 57 % 1001,8 hPa 0,0 l/m 0,0 km/h N -7,2 C 0,4 C 0,8 km/h
03.03.2018 14:00 0,9 C 55 % 1001,6 hPa 0,0 l/m 0,0 km/h N -7,2 C 0,9 C 1,6 km/h
03.03.2018 15:00 0,6 C 56 % 1001,5 hPa 0,0 l/m 0,0 km/h N -7,1 C 0,6 C 1,6 km/h
03.03.2018 16:00 -0,6 C 59 % 1001,5 hPa 0,0 l/m 0,1 km/h N -7,6 C -0,6 C 3,6 km/h
03.03.2018 17:00 -1,3 C 61 % 1001,6 hPa 0,0 l/m 0,0 km/h N -7,9 C -1,3 C 0,0 km/h
03.03.2018 18:00 -1,7 C 60 % 1001,9 hPa 0,0 l/m 0,0 km/h N -8,3 C -1,7 C 0,0 km/h
03.03.2018 19:00 -1,7 C 62 % 1002,3 hPa 0,0 l/m 0,0 km/h N -8,0 C -1,7 C 1,2 km/h
03.03.2018 20:00 -1,9 C 60 % 1003,1 hPa 0,0 l/m 0,3 km/h N -8,6 C -1,9 C 4,0 km/h
03.03.2018 21:00 -2,3 C 60 % 1003,8 hPa 0,0 l/m 0,1 km/h N -9,0 C -2,3 C 3,2 km/h
03.03.2018 22:00 -2,6 C 60 % 1004,1 hPa 0,0 l/m 0,4 km/h N -9,2 C -2,6 C 5,6 km/h
03.03.2018 23:00 -3,0 C 61 % 1004,9 hPa 0,0 l/m 2,3 km/h N -9,4 C -3,0 C 10,1 km/h
04.03.2018 00:00 -3,7 C 64 % 1005,7 hPa 0,0 l/m 1,7 km/h N -9,6 C -3,7 C 8,4 km/h
04.03.2018 01:00 -4,3 C 65 % 1006,0 hPa 0,0 l/m 3,7 km/h N -10,0 C -4,3 C 12,5 km/h
04.03.2018 02:00 -4,6 C 66 % 1006,4 hPa 0,0 l/m 3,1 km/h N -10,1 C -4,6 C 9,3 km/h
04.03.2018 03:00 -4,8 C 67 % 1006,8 hPa 0,0 l/m 3,5 km/h N -10,0 C -4,8 C 10,9 km/h
04.03.2018 04:00 -5,4 C 66 % 1007,3 hPa 0,0 l/m 1,1 km/h N -10,8 C -5,4 C 6,8 km/h
04.03.2018 05:00 -6,2 C 68 % 1007,9 hPa 0,0 l/m 0,5 km/h N -11,2 C -6,2 C 4,4 km/h
04.03.2018 06:00 -6,5 C 70 % 1008,4 hPa 0,0 l/m 0,3 km/h N -11,0 C -6,5 C 2,8 km/h
04.03.2018 07:00 -7,1 C 71 % 1008,8 hPa 0,0 l/m 0,0 km/h N -11,4 C -7,1 C 0,0 km/h
04.03.2018 08:00 -5,8 C 71 % 1009,0 hPa 0,0 l/m 0,1 km/h N -10,2 C -5,8 C 0,8 km/h
04.03.2018 09:00 -3,1 C 64 % 1008,9 hPa 0,0 l/m 0,0 km/h N -8,9 C -3,1 C 1,6 km/h
04.03.2018 10:00 -0,9 C 58 % 1008,8 hPa 0,0 l/m 0,2 km/h N -8,1 C -0,9 C 4,0 km/h
04.03.2018 11:00 0,3 C 56 % 1008,6 hPa 0,0 l/m 0,2 km/h N -7,4 C 0,3 C 3,6 km/h
04.03.2018 12:00 1,5 C 54 % 1008,1 hPa 0,3 l/m 0,4 km/h N -6,7 C 1,5 C 4,8 km/h
04.03.2018 13:00 1,9 C 56 % 1007,8 hPa 0,0 l/m 0,4 km/h N -6,0 C 1,9 C 5,6 km/h
04.03.2018 14:00 2,8 C 57 % 1007,2 hPa 0,0 l/m 0,6 km/h N -4,8 C 2,8 C 5,6 km/h
04.03.2018 15:00 2,8 C 59 % 1006,7 hPa 0,0 l/m 1,0 km/h N -4,4 C 2,8 C 6,8 km/h
04.03.2018 16:00 2,1 C 61 % 1006,3 hPa 0,0 l/m 0,2 km/h N -4,6 C 2,1 C 5,2 km/h
04.03.2018 17:00 1,1 C 64 % 1006,3 hPa 0,0 l/m 0,0 km/h N -4,9 C 1,1 C 0,4 km/h
04.03.2018 18:00 -0,3 C 70 % 1006,3 hPa 0,0 l/m 0,0 km/h N -5,1 C -0,3 C 1,6 km/h
04.03.2018 19:00 -0,9 C 76 % 1006,0 hPa 0,0 l/m 0,1 km/h N -4,6 C -0,9 C 4,4 km/h
04.03.2018 20:00 -1,1 C 79 % 1005,5 hPa 0,0 l/m 0,0 km/h N -4,4 C -1,1 C 1,6 km/h
04.03.2018 21:00 -1,5 C 81 % 1005,3 hPa 0,0 l/m 0,0 km/h N -4,5 C -1,5 C 2,0 km/h
04.03.2018 22:00 -1,5 C 82 % 1005,0 hPa 0,0 l/m 0,7 km/h N -4,3 C -1,5 C 8,1 km/h
04.03.2018 23:00 -1,7 C 82 % 1004,8 hPa 0,0 l/m 0,2 km/h N -4,3 C -1,7 C 3,2 km/h
Min-Datum _ 01.03.18 03.03.18 02.03.18 - 28.02.18 - 01.03.18 01.03.18 28.02.18
_ Min-Zeit 03:45 14:45 16:00 - 18:30 - 03:45 03:45 18:45
Minimum _ -16,1 C 54 % 999,1 hPa - 0,0 km/h - -19,0 C -16,1 C 0,0 km/h
Max-Datum _ 04.03.18 02.03.18 26.02.18 04.03.18 27.02.18 - 04.03.18 04.03.18 26.02.18
_ Max-Zeit 14:30 09:00 00:00 12:00 14:45 - 22:15 14:30 13:30
Maximum _ 3,2 C 84 % 1025,7 hPa 0,3 l/m 11,7 km/h
N
- -4,2 C 3,2 C 30,6 km/h
N
Durchschnitt _ -7,1 C 71 % 1012,7 hPa #0,3 l/m 3,1 km/h N -11,5 C -7,6 C 10,3 km/h